Erwin, NC

6:39 PM EDT on August 18, 2017 (GMT -0400)
Harnett County

Weather History for KHRJ - June, 2013

Change the Weather History Date:

Saturday, June 22, 2013

  Actual Average Record
Temperature  
Mean Temperature 74 °F -  
Max Temperature 79 °F 87 °F 99 °F (1981)
Min Temperature 70 °F 66 °F 54 °F (1980)
Cooling Degree Days 10    
Growing Degree Days 24 (Base 50)    
Moisture  
Dew Point 70 °F    
Average Humidity 86    
Maximum Humidity 99    
Minimum Humidity 71    
Precipitation  
Precipitation 0.26 in - - ()
Sea Level Pressure  
Sea Level Pressure 30.17 in    
Wind  
Wind Speed 5 mph (NE)    
Max Wind Speed 10 mph    
Max Gust Speed -    
Visibility 9 miles    
Events Rain    
Averages and records for this station are not official NWS values.
T = Trace of Precipitation, MM = Missing Value Source: NWS Daily Summary

Daily Weather History Graph

Daily Weather History Graph

Search for Another Location

Airport or City:

Trip Planner

Search our weather history database for the weather conditions in past years. The results will help you decide how hot, cold, wet, or windy it might be!

Date:

Astronomy

Jun. 22, 2013 Rise Set
Actual Time 6:00 AM EDT 8:33 PM EDT
Civil Twilight 5:30 AM EDT 9:03 PM EDT
Nautical Twilight 4:53 AM EDT 9:40 PM EDT
Astronomical Twilight 4:12 AM EDT 10:21 PM EDT
Moon 7:48 PM EDT (6/22) 5:09 AM EDT (6/22)
Length of Visible Light 15h 32m
Length of Day
14h 32m
Waxing Gibbous, 99% of the Moon is Illuminated
Jun 22
Waxing Gibbous
Jun 23
Full
Jun 30
Last Quarter
Jul 8
New
Jul 15
First Quarter

Hourly Weather History & Observations

Time (EDT) Temp. Dew Point Humidity Pressure Visibility Wind Dir Wind Speed Gust Speed Precip Events Conditions
12:15 AM 73.4 °F 65.3 °F 76% 30.20 in 10.0 mi NE 5.8 mph - N/A   Clear
12:35 AM 73.0 °F 66.2 °F 79% 30.20 in 10.0 mi NE 6.9 mph - N/A   Clear
12:55 AM 72.9 °F 66.7 °F 81% 30.20 in 10.0 mi NE 5.8 mph - N/A   Mostly Cloudy
1:15 AM 72.5 °F 67.1 °F 83% 30.20 in 10.0 mi NE 4.6 mph - N/A   Scattered Clouds
1:35 AM 72.7 °F 67.5 °F 84% 30.20 in 10.0 mi NE 5.8 mph - N/A   Scattered Clouds
1:55 AM 72.5 °F 67.8 °F 85% 30.19 in 10.0 mi NE 4.6 mph - N/A   Scattered Clouds
2:15 AM 71.6 °F 69.3 °F 92% 30.18 in 10.0 mi NE 4.6 mph - N/A   Scattered Clouds
2:35 AM 71.6 °F 69.4 °F 93% 30.18 in 10.0 mi North 3.5 mph - N/A   Clear
2:55 AM 71.6 °F 69.4 °F 93% 30.18 in 10.0 mi Calm Calm - N/A   Mostly Cloudy
3:15 AM 71.8 °F 69.8 °F 93% 30.17 in 10.0 mi NNE 4.6 mph - N/A   Overcast
3:35 AM 72.0 °F 69.8 °F 93% 30.17 in 10.0 mi NE 5.8 mph - N/A   Overcast
3:55 AM 72.0 °F 69.8 °F 93% 30.17 in 10.0 mi NE 6.9 mph - N/A   Overcast
4:15 AM 71.6 °F 69.8 °F 94% 30.18 in 10.0 mi NNE 4.6 mph - N/A   Overcast
4:35 AM 71.6 °F 69.8 °F 94% 30.17 in 10.0 mi NNE 4.6 mph - N/A   Overcast
4:55 AM 71.6 °F 69.8 °F 94% 30.17 in 10.0 mi NNE 8.1 mph - N/A   Overcast
5:15 AM 72.0 °F 69.8 °F 93% 30.18 in 10.0 mi NNE 9.2 mph - N/A   Overcast
5:35 AM 71.8 °F 69.8 °F 93% 30.18 in 10.0 mi NNE 5.8 mph - N/A   Overcast
5:55 AM 71.8 °F 69.4 °F 92% 30.18 in 10.0 mi NE 8.1 mph - N/A   Overcast
6:15 AM 71.8 °F 69.3 °F 92% 30.19 in 10.0 mi NNE 8.1 mph - N/A   Overcast
6:35 AM 71.8 °F 69.3 °F 92% 30.19 in 10.0 mi NNE 5.8 mph - N/A   Overcast
6:55 AM 71.8 °F 69.3 °F 92% 30.19 in 10.0 mi NNE 6.9 mph - N/A   Overcast
7:15 AM 71.6 °F 69.4 °F 93% 30.19 in 10.0 mi NE 6.9 mph - N/A   Overcast
7:35 AM 71.6 °F 69.4 °F 93% 30.19 in 10.0 mi NNE 4.6 mph - N/A   Overcast
7:55 AM 71.8 °F 69.6 °F 93% 30.20 in 10.0 mi North 4.6 mph - N/A   Overcast
8:15 AM 71.8 °F 69.6 °F 93% 30.20 in 10.0 mi NNE 4.6 mph - N/A   Overcast
8:35 AM 70.7 °F 70.2 °F 98% 30.20 in 1.8 mi NNE 5.8 mph - 0.08 in Rain Heavy Rain
8:55 AM 70.7 °F 70.5 °F 99% 30.20 in 1.8 mi North 4.6 mph - 0.22 in Rain Rain
9:15 AM 71.2 °F 70.7 °F 98% 30.21 in 10.0 mi ENE 6.9 mph - 0.01 in   Light Drizzle
9:35 AM 71.8 °F 71.1 °F 98% 30.20 in 5.0 mi NE 8.1 mph - 0.01 in Rain Light Rain
9:55 AM 72.5 °F 72.0 °F 98% 30.19 in 2.5 mi NE 8.1 mph - 0.02 in   Overcast
10:15 AM 73.4 °F 72.7 °F 98% 30.19 in 7.0 mi NE 6.9 mph - N/A   Overcast
10:35 AM 75.2 °F 72.3 °F 91% 30.18 in 10.0 mi NE 8.1 mph - N/A   Overcast
10:55 AM 75.7 °F 70.2 °F 83% 30.18 in 10.0 mi NE 6.9 mph - N/A   Overcast
11:15 AM 75.4 °F 70.0 °F 83% 30.19 in 10.0 mi NE 6.9 mph - N/A   Overcast
11:35 AM 76.1 °F 70.3 °F 82% 30.19 in 10.0 mi NE 6.9 mph - N/A   Overcast
11:55 AM 76.5 °F 69.6 °F 79% 30.19 in 10.0 mi NNE 4.6 mph - N/A   Overcast
12:15 PM 77.9 °F 68.7 °F 73% 30.19 in 10.0 mi NE 9.2 mph - N/A   Overcast
12:35 PM 78.4 °F 69.3 °F 73% 30.19 in 10.0 mi NE 6.9 mph - N/A   Overcast
12:55 PM 75.0 °F 69.3 °F 82% 30.19 in 7.0 mi ENE 8.1 mph - N/A Rain Light Rain
1:15 PM 75.7 °F 71.4 °F 86% 30.19 in 10.0 mi NE 5.8 mph - N/A   Overcast
1:35 PM 77.0 °F 71.2 °F 82% 30.18 in 10.0 mi NNE 4.6 mph - N/A   Overcast
1:55 PM 74.8 °F 70.0 °F 85% 30.18 in 4.0 mi East 8.1 mph - 0.02 in Rain Light Rain
2:15 PM 75.6 °F 70.7 °F 85% 30.18 in 7.0 mi ENE 8.1 mph - N/A   Overcast
2:35 PM 77.4 °F 71.2 °F 81% 30.17 in 10.0 mi NE 8.1 mph - N/A   Overcast
2:55 PM 79.0 °F 70.9 °F 76% 30.16 in 10.0 mi NNE 6.9 mph - N/A   Overcast
3:15 PM 79.5 °F 69.4 °F 71% 30.16 in 10.0 mi ENE 10.4 mph - N/A   Overcast
3:35 PM 77.0 °F 69.1 °F 76% 30.16 in 10.0 mi NE 8.1 mph - N/A   Overcast
3:55 PM 78.3 °F 68.2 °F 71% 30.15 in 10.0 mi NE 6.9 mph - N/A   Overcast
4:15 PM 77.7 °F 69.4 °F 76% 30.15 in 10.0 mi North 6.9 mph - N/A   Overcast
4:35 PM 76.8 °F 70.3 °F 80% 30.15 in 10.0 mi Calm Calm - N/A   Overcast
4:55 PM 77.7 °F 70.2 °F 77% 30.14 in 10.0 mi NE 8.1 mph - N/A   Overcast
5:15 PM 77.9 °F 68.7 °F 73% 30.14 in 10.0 mi NE 8.1 mph - N/A   Overcast
5:35 PM 77.7 °F 68.9 °F 74% 30.13 in 10.0 mi NNE 10.4 mph - N/A   Overcast
5:55 PM 78.1 °F 68.2 °F 71% 30.13 in 10.0 mi NE 9.2 mph - N/A   Mostly Cloudy
6:15 PM 77.5 °F 68.0 °F 72% 30.13 in 10.0 mi NE 5.8 mph - N/A   Scattered Clouds
6:35 PM 77.7 °F 68.5 °F 73% 30.13 in 10.0 mi NNE 6.9 mph - N/A   Scattered Clouds
6:55 PM 76.8 °F 68.2 °F 75% 30.13 in 10.0 mi NNE 3.5 mph - N/A   Clear
7:15 PM 77.4 °F 67.3 °F 71% 30.12 in 10.0 mi ENE 4.6 mph - N/A   Clear
7:35 PM 76.3 °F 67.8 °F 75% 30.13 in 10.0 mi NE 3.5 mph - N/A   Clear
7:55 PM 75.6 °F 68.0 °F 77% 30.14 in 10.0 mi Calm Calm - N/A   Scattered Clouds
8:15 PM 75.2 °F 68.2 °F 79% 30.14 in 10.0 mi Calm Calm - N/A   Clear
8:35 PM 74.3 °F 68.9 °F 83% 30.14 in 10.0 mi Calm Calm - N/A   Clear
8:55 PM 73.8 °F 70.5 °F 90% 30.14 in 10.0 mi Calm Calm - N/A   Clear
9:15 PM 73.4 °F 71.1 °F 92% 30.15 in 10.0 mi Calm Calm - N/A   Scattered Clouds
9:35 PM 73.4 °F 71.1 °F 92% 30.15 in 10.0 mi Calm Calm - N/A   Mostly Cloudy
9:55 PM 72.5 °F 71.2 °F 96% 30.15 in 10.0 mi Calm Calm - N/A   Mostly Cloudy
10:15 PM 72.5 °F 71.1 °F 95% 30.14 in 10.0 mi Calm Calm - N/A   Scattered Clouds
10:35 PM 72.5 °F 71.1 °F 95% 30.15 in 10.0 mi Calm Calm - N/A   Clear
10:55 PM 72.0 °F 71.1 °F 97% 30.17 in 10.0 mi Calm Calm - N/A   Clear
11:15 PM 72.0 °F 71.2 °F 98% 30.17 in 10.0 mi Calm Calm - N/A   Mostly Cloudy
11:35 PM 71.8 °F 71.2 °F 98% 30.18 in 10.0 mi Calm Calm - N/A   Overcast
11:55 PM 71.8 °F 71.6 °F 99% 30.18 in 10.0 mi Calm Calm - N/A   Overcast